createdAt,value
2018-04-11T00:02:07.642Z,76.94
2018-04-11T00:04:37.372Z,77.50
2018-04-11T00:07:03.372Z,77.26
2018-04-11T00:09:30.426Z,77.49
2018-04-11T00:11:56.308Z,77.78
2018-04-11T00:14:22.187Z,77.56
2018-04-11T00:16:48.022Z,77.53
2018-04-11T00:19:13.938Z,77.11
2018-04-11T00:21:42.349Z,77.51
2018-04-11T00:24:08.256Z,77.58
2018-04-11T00:26:37.806Z,77.39
2018-04-11T00:29:03.709Z,77.42
2018-04-11T00:31:33.353Z,77.62
2018-04-11T00:33:59.280Z,77.58
2018-04-11T00:36:26.374Z,77.48
2018-04-11T00:38:52.271Z,77.27
2018-04-11T00:41:21.360Z,77.21
2018-04-11T00:43:47.246Z,77.28
2018-04-11T00:46:16.297Z,77.00
2018-04-11T00:48:42.156Z,76.52
2018-04-11T00:51:08.082Z,77.00
2018-04-11T00:53:33.950Z,77.44
2018-04-11T00:55:59.852Z,77.41
2018-04-11T00:58:27.316Z,77.36
2018-04-11T01:00:53.206Z,77.29
2018-04-11T01:03:21.982Z,77.02
2018-04-11T01:05:47.848Z,76.92
2018-04-11T01:08:17.307Z,76.80
2018-04-11T01:10:43.226Z,77.28
2018-04-11T01:13:11.758Z,77.49
2018-04-11T01:15:37.602Z,76.92
2018-04-11T01:18:06.385Z,76.63
2018-04-11T01:20:32.239Z,76.03
2018-04-11T01:23:01.355Z,75.97
2018-04-11T01:25:27.198Z,75.89
2018-04-11T01:27:53.046Z,75.93
2018-04-11T01:30:18.876Z,76.42
2018-04-11T01:32:44.744Z,77.04
2018-04-11T01:35:13.974Z,77.25
2018-04-11T01:37:39.875Z,76.97
2018-04-11T01:40:09.408Z,76.76
2018-04-11T01:42:35.316Z,76.98
2018-04-11T01:45:03.119Z,77.08
2018-04-11T01:47:29.003Z,77.21
2018-04-11T01:49:58.438Z,77.12
2018-04-11T01:52:24.282Z,77.14
2018-04-11T01:54:51.834Z,76.76
2018-04-11T01:57:21.616Z,76.90
2018-04-11T01:59:47.576Z,76.77
2018-04-11T02:02:13.497Z,76.88
2018-04-11T02:04:39.382Z,77.06
2018-04-11T02:07:05.281Z,77.23
2018-04-11T02:09:31.161Z,77.04
2018-04-11T02:11:58.885Z,76.83
2018-04-11T02:14:24.816Z,77.12
2018-04-11T02:16:54.512Z,77.12
2018-04-11T02:19:20.388Z,76.98
2018-04-11T02:21:47.791Z,76.97
2018-04-11T02:24:13.614Z,77.14
2018-04-11T02:26:42.758Z,77.16
2018-04-11T02:29:08.667Z,77.45
2018-04-11T02:31:37.932Z,77.40
2018-04-11T02:34:03.799Z,77.19
2018-04-11T02:36:32.911Z,76.78
2018-04-11T02:38:58.795Z,76.71
2018-04-11T02:41:24.680Z,76.99
2018-04-11T02:43:50.526Z,77.00
2018-04-11T02:46:16.402Z,77.06
2018-04-11T02:48:43.610Z,77.39
2018-04-11T02:51:09.448Z,77.63
2018-04-11T02:53:38.734Z,77.67
2018-04-11T02:56:04.600Z,77.90
2018-04-11T02:58:34.343Z,77.72
2018-04-11T03:01:00.194Z,79.03
2018-04-11T03:03:28.877Z,78.95
2018-04-11T03:05:54.722Z,78.49
2018-04-11T03:08:22.213Z,78.37
2018-04-11T03:10:48.098Z,78.69
2018-04-11T03:13:16.797Z,78.63
2018-04-11T03:15:42.683Z,78.49
2018-04-11T03:18:08.575Z,78.46
2018-04-11T03:20:34.469Z,78.21
2018-04-11T03:23:00.352Z,78.29
2018-04-11T03:25:29.575Z,78.17
2018-04-11T03:27:55.455Z,78.67
2018-04-11T03:30:23.379Z,78.60
2018-04-11T03:32:49.229Z,78.15
2018-04-11T03:35:18.013Z,78.02
2018-04-11T03:37:43.858Z,77.72
2018-04-11T03:40:13.011Z,77.80
2018-04-11T03:42:38.881Z,78.16
2018-04-11T03:45:08.569Z,78.36
2018-04-11T03:47:34.436Z,78.35
2018-04-11T03:50:03.726Z,78.66
2018-04-11T03:52:29.622Z,78.54
2018-04-11T03:54:55.515Z,78.39
2018-04-11T03:57:21.400Z,78.31
2018-04-11T03:59:47.243Z,78.88
2018-04-11T04:02:14.204Z,80.09
2018-04-11T04:04:40.080Z,80.13
2018-04-11T04:07:09.686Z,79.65
2018-04-11T04:09:35.540Z,79.35
2018-04-11T04:12:04.957Z,79.84
2018-04-11T04:14:43.715Z,79.33
2018-04-11T04:17:21.835Z,79.15
2018-04-11T04:22:47.707Z,79.30
2018-04-11T04:25:13.604Z,78.92
2018-04-11T04:30:02.985Z,78.78
2018-04-11T04:32:28.851Z,78.32
2018-04-11T04:34:54.718Z,78.58
2018-04-11T04:37:20.632Z,78.92
2018-04-11T04:39:46.496Z,78.84
2018-04-11T04:42:12.342Z,78.70
2018-04-11T04:44:38.238Z,78.33
2018-04-11T04:47:04.120Z,78.18
2018-04-11T04:49:30.077Z,78.45
2018-04-11T04:51:55.990Z,78.75
2018-04-11T04:54:21.827Z,78.80
2018-04-11T04:56:47.661Z,78.73
2018-04-11T04:59:13.502Z,78.71
2018-04-11T05:01:39.386Z,78.97
2018-04-11T05:04:05.279Z,79.58
2018-04-11T05:06:31.132Z,79.42
2018-04-11T05:08:57.018Z,79.33
2018-04-11T05:11:22.868Z,79.08
2018-04-11T05:13:48.737Z,79.15
2018-04-11T05:16:14.632Z,79.10
2018-04-11T05:18:40.503Z,79.24
2018-04-11T05:21:06.408Z,78.95
2018-04-11T05:23:32.268Z,79.23
2018-04-11T05:25:58.155Z,79.45
2018-04-11T05:28:24.033Z,79.61
2018-04-11T05:30:50.003Z,79.09
2018-04-11T05:33:15.847Z,78.85
2018-04-11T05:35:41.799Z,79.15
2018-04-11T05:38:07.676Z,79.92
2018-04-11T05:40:33.581Z,80.15
2018-04-11T05:42:59.489Z,80.05
2018-04-11T05:45:25.332Z,79.83
2018-04-11T05:47:51.192Z,79.69
2018-04-11T05:50:17.095Z,79.43
2018-04-11T05:52:42.964Z,78.86
2018-04-11T05:55:08.999Z,77.59
2018-04-11T05:57:34.914Z,76.64
2018-04-11T06:00:00.774Z,75.14
2018-04-11T06:02:26.651Z,74.41
2018-04-11T06:04:52.545Z,74.03
2018-04-11T06:07:18.454Z,74.66
2018-04-11T06:09:44.339Z,75.05
2018-04-11T06:12:10.187Z,75.50
2018-04-11T06:14:36.589Z,75.37
2018-04-11T06:17:03.525Z,75.52
2018-04-11T06:19:29.365Z,75.50
2018-04-11T06:21:55.230Z,75.19
2018-04-11T06:24:21.096Z,73.88
2018-04-11T06:26:46.974Z,74.19
2018-04-11T06:29:16.787Z,74.02
2018-04-11T06:31:42.676Z,73.71
2018-04-11T06:34:10.030Z,72.68
2018-04-11T06:36:35.903Z,72.75
2018-04-11T06:39:05.118Z,71.54
2018-04-11T06:41:30.986Z,71.08
2018-04-11T06:44:00.368Z,69.65
2018-04-11T06:46:26.246Z,66.83
2018-04-11T06:48:55.639Z,66.37
2018-04-11T06:51:21.522Z,65.87
2018-04-11T06:53:48.938Z,64.80
2018-04-11T06:56:14.803Z,63.73
2018-04-11T06:58:40.776Z,63.51
2018-04-11T07:01:06.559Z,61.52
2018-04-11T07:03:32.426Z,60.59
2018-04-11T07:06:02.026Z,59.08
2018-04-11T07:10:59.439Z,57.88
2018-04-11T07:13:29.042Z,56.99
2018-04-11T07:15:54.902Z,56.42
2018-04-11T07:18:20.771Z,55.59
2018-04-11T07:20:46.614Z,54.57
2018-04-11T07:23:12.526Z,53.67
2018-04-11T07:25:39.279Z,53.39
2018-04-11T07:28:05.133Z,52.47
2018-04-11T07:33:06.286Z,51.79
2018-04-11T07:38:03.713Z,49.40
2018-04-11T07:40:29.585Z,47.33
2018-04-11T07:42:55.466Z,46.46
2018-04-11T07:45:25.232Z,48.22
2018-04-11T07:47:51.077Z,45.42
2018-04-11T07:50:16.951Z,43.73
2018-04-11T07:52:42.862Z,43.80
2018-04-11T07:55:08.770Z,43.91
2018-04-11T07:57:34.608Z,44.59
2018-04-11T08:00:00.470Z,45.46
2018-04-11T08:02:26.348Z,47.30
2018-04-11T08:04:52.265Z,47.36
2018-04-11T08:07:19.915Z,48.23
2018-04-11T08:09:45.828Z,48.39
2018-04-11T08:14:43.186Z,48.93
2018-04-11T08:17:09.014Z,49.37
2018-04-11T08:19:34.902Z,49.84
2018-04-11T08:22:00.806Z,50.02
2018-04-11T08:24:39.864Z,49.37
2018-04-11T08:27:05.733Z,48.64
2018-04-11T08:29:31.573Z,49.03
2018-04-11T08:34:29.110Z,46.97
2018-04-11T08:36:54.995Z,46.91
2018-04-11T08:39:20.895Z,46.90
2018-04-11T08:41:46.753Z,48.67
2018-04-11T08:44:12.618Z,47.75
2018-04-11T08:46:38.478Z,47.89
2018-04-11T08:49:04.365Z,49.04
2018-04-11T08:51:30.267Z,50.03
2018-04-11T08:53:56.118Z,44.69
2018-04-11T08:56:21.978Z,40.64
2018-04-11T08:58:47.872Z,42.62
2018-04-11T09:01:13.750Z,41.43
2018-04-11T09:03:39.639Z,41.86
2018-04-11T09:06:07.566Z,39.70
2018-04-11T09:08:33.493Z,41.76
2018-04-11T09:11:00.549Z,43.60
2018-04-11T09:13:26.410Z,43.39
2018-04-11T09:15:58.475Z,42.93
2018-04-11T09:18:24.366Z,42.90
2018-04-11T09:20:50.427Z,39.47
2018-04-11T09:23:16.326Z,42.82
2018-04-11T09:25:42.185Z,41.70
2018-04-11T09:28:08.014Z,39.79
2018-04-11T09:30:33.902Z,41.74
2018-04-11T09:33:03.255Z,40.72
2018-04-11T09:35:29.081Z,41.19
2018-04-11T09:37:56.541Z,43.21
2018-04-11T09:40:22.425Z,38.87
2018-04-11T09:42:52.065Z,40.15
2018-04-11T09:45:17.959Z,42.71
2018-04-11T09:47:46.819Z,42.39
2018-04-11T09:50:12.690Z,42.96
2018-04-11T09:52:42.134Z,41.68
2018-04-11T09:55:08.014Z,41.29
2018-04-11T09:57:35.977Z,41.30
2018-04-11T10:00:01.913Z,43.55
2018-04-11T10:02:27.796Z,40.67
2018-04-11T10:04:53.697Z,39.20
2018-04-11T10:07:19.635Z,39.34
2018-04-11T10:09:48.648Z,37.19
2018-04-11T10:12:14.530Z,35.77
2018-04-11T10:14:44.121Z,36.77
2018-04-11T10:17:10.092Z,38.54
2018-04-11T10:19:36.451Z,36.00
2018-04-11T10:22:02.409Z,34.74
2018-04-11T10:24:32.228Z,34.84
2018-04-11T10:26:58.110Z,36.46
2018-04-11T10:29:25.860Z,35.95
2018-04-11T10:31:51.771Z,34.55
2018-04-11T10:34:21.448Z,33.90
2018-04-11T10:36:47.363Z,34.54
2018-04-11T10:39:13.202Z,33.00
2018-04-11T10:41:39.049Z,34.97
2018-04-11T10:44:04.920Z,31.20
2018-04-11T10:46:32.154Z,33.14
2018-04-11T10:48:58.037Z,33.25
2018-04-11T10:51:26.737Z,34.00
2018-04-11T10:53:52.641Z,33.14
2018-04-11T10:56:21.376Z,32.76
2018-04-11T10:58:47.230Z,30.90
2018-04-11T11:03:45.405Z,31.62
2018-04-11T11:06:11.305Z,29.91
2018-04-11T11:08:37.178Z,30.95
2018-04-11T11:11:06.064Z,30.29
2018-04-11T11:13:31.918Z,28.13
2018-04-11T11:15:57.768Z,30.14
2018-04-11T11:18:23.613Z,31.35
2018-04-11T11:20:56.702Z,30.96
2018-04-11T11:23:22.575Z,29.65
2018-04-11T11:25:48.459Z,27.41
2018-04-11T11:28:14.388Z,29.46
2018-04-11T11:30:40.226Z,29.03
2018-04-11T11:33:07.005Z,27.94
2018-04-11T11:35:32.930Z,27.54
2018-04-11T11:38:02.447Z,25.79
2018-04-11T11:40:28.308Z,28.40
2018-04-11T11:42:56.394Z,28.79
2018-04-11T11:45:22.259Z,28.64
2018-04-11T11:47:50.684Z,29.42
2018-04-11T11:50:16.525Z,28.89
2018-04-11T11:52:42.374Z,28.70
2018-04-11T11:55:08.253Z,29.11
2018-04-11T11:57:34.152Z,28.06
2018-04-11T12:00:03.137Z,28.17
2018-04-11T12:02:29.047Z,27.31
2018-04-11T12:04:58.347Z,26.75
2018-04-11T12:07:24.261Z,27.29
2018-04-11T12:09:52.466Z,26.31
2018-04-11T12:12:18.327Z,25.87
2018-04-11T12:14:47.269Z,26.81
2018-04-11T12:17:13.121Z,27.21
2018-04-11T12:19:42.630Z,28.79
2018-04-11T12:22:08.492Z,28.46
2018-04-11T12:24:38.449Z,26.38
2018-04-11T12:27:04.339Z,25.53
2018-04-11T12:29:30.205Z,27.35
2018-04-11T12:31:56.081Z,25.81
2018-04-11T12:34:21.960Z,26.35
2018-04-11T12:36:48.281Z,24.99
2018-04-11T12:39:14.116Z,25.66
2018-04-11T12:41:42.994Z,26.21
2018-04-11T12:44:08.852Z,25.98
2018-04-11T12:46:38.523Z,25.89
2018-04-11T12:49:04.406Z,24.76
2018-04-11T12:51:33.320Z,25.12
2018-04-11T12:53:59.200Z,26.17
2018-04-11T12:56:28.850Z,29.97
2018-04-11T12:58:54.695Z,28.61
2018-04-11T13:01:22.201Z,29.01
2018-04-11T13:03:48.018Z,26.77
2018-04-11T13:06:13.886Z,28.13
2018-04-11T13:08:39.781Z,26.39
2018-04-11T13:11:05.646Z,26.59
2018-04-11T13:13:33.740Z,28.19
2018-04-11T13:16:00.530Z,26.83
2018-04-11T13:18:28.212Z,26.63
2018-04-11T13:20:54.123Z,28.37
2018-04-11T13:23:23.836Z,27.94
2018-04-11T13:25:49.728Z,25.98
2018-04-11T13:28:19.289Z,26.43
2018-04-11T13:30:45.108Z,25.44
2018-04-11T13:33:12.826Z,26.43
2018-04-11T13:35:38.681Z,24.32
2018-04-11T13:38:08.145Z,24.70
2018-04-11T13:40:34.042Z,25.70
2018-04-11T13:42:59.963Z,29.69
2018-04-11T13:45:25.829Z,30.96
2018-04-11T13:47:51.728Z,28.94
2018-04-11T13:50:18.913Z,26.49
2018-04-11T13:52:44.778Z,27.99
2018-04-11T13:55:14.541Z,30.97
2018-04-11T13:57:40.474Z,30.16
2018-04-11T14:00:09.686Z,29.55
2018-04-11T14:02:35.555Z,27.00
2018-04-11T14:05:02.887Z,27.74
2018-04-11T14:07:28.753Z,27.79
2018-04-11T14:09:57.655Z,26.65
2018-04-11T14:12:23.507Z,26.83
2018-04-11T14:14:57.236Z,26.12
2018-04-11T14:17:23.140Z,27.23
2018-04-11T14:19:49.037Z,27.28
2018-04-11T14:22:14.933Z,26.88
2018-04-11T14:24:40.813Z,27.51
2018-04-11T14:27:06.698Z,27.21
2018-04-11T14:29:32.621Z,27.54
2018-04-11T14:31:58.596Z,28.54
2018-04-11T14:34:24.490Z,26.98
2018-04-11T14:36:53.300Z,28.99
2018-04-11T14:39:19.169Z,30.41
2018-04-11T14:41:47.759Z,30.74
2018-04-11T14:44:13.659Z,31.12
2018-04-11T14:49:10.504Z,31.76
2018-04-11T14:51:38.277Z,31.61
2018-04-11T14:54:04.126Z,32.95
2018-04-11T14:56:29.988Z,33.37
2018-04-11T14:58:55.885Z,32.92
2018-04-11T15:01:21.770Z,31.66
2018-04-11T15:03:49.434Z,32.51
2018-04-11T15:06:15.293Z,31.87
2018-04-11T15:08:44.720Z,30.92
2018-04-11T15:11:10.607Z,31.28
2018-04-11T15:13:39.735Z,30.66
2018-04-11T15:16:05.596Z,29.98
2018-04-11T15:18:34.625Z,29.43
2018-04-11T15:21:00.518Z,29.26
2018-04-11T15:23:27.925Z,28.42
2018-04-11T15:25:53.825Z,30.05
2018-04-11T15:28:22.556Z,30.83
2018-04-11T15:30:48.465Z,30.93
2018-04-11T15:33:14.326Z,32.80
2018-04-11T15:35:40.201Z,34.00
2018-04-11T15:38:06.099Z,35.58
2018-04-11T15:40:35.585Z,33.55
2018-04-11T15:43:01.500Z,32.81
2018-04-11T15:45:29.334Z,33.41
2018-04-11T15:47:55.202Z,33.09
2018-04-11T15:50:23.973Z,32.58
2018-04-11T15:52:49.866Z,33.83
2018-04-11T15:55:18.858Z,33.99
2018-04-11T15:57:44.749Z,34.68
2018-04-11T16:00:14.363Z,35.26
2018-04-11T16:02:40.236Z,36.43
2018-04-11T16:05:08.107Z,35.20
2018-04-11T16:07:33.957Z,35.08
2018-04-11T16:09:59.835Z,34.95
2018-04-11T16:12:25.718Z,35.25
2018-04-11T16:14:57.294Z,35.26
2018-04-11T16:17:23.159Z,35.98
2018-04-11T16:19:49.059Z,36.08
2018-04-11T16:22:14.930Z,36.40
2018-04-11T16:24:40.858Z,35.96
2018-04-11T16:27:10.459Z,35.44
2018-04-11T16:29:36.329Z,36.66
2018-04-11T16:32:05.559Z,36.67
2018-04-11T16:34:31.405Z,37.21
2018-04-11T16:36:58.638Z,37.33
2018-04-11T16:39:24.461Z,38.00
2018-04-11T16:41:53.338Z,38.61
2018-04-11T16:44:19.201Z,38.80
2018-04-11T16:46:45.084Z,39.35
2018-04-11T16:49:10.957Z,39.10
2018-04-11T16:51:36.850Z,39.16
2018-04-11T16:54:07.186Z,39.70
2018-04-11T16:56:33.025Z,39.78
2018-04-11T16:59:00.298Z,40.55
2018-04-11T17:01:26.134Z,40.95
2018-04-11T17:03:56.158Z,41.37
2018-04-11T17:06:22.022Z,41.74
2018-04-11T17:08:49.409Z,41.83
2018-04-11T17:11:15.305Z,42.05
2018-04-11T17:13:44.683Z,42.46
2018-04-11T17:16:10.621Z,42.55
2018-04-11T17:18:38.670Z,43.14
2018-04-11T17:21:16.846Z,43.31
2018-04-11T17:23:55.056Z,43.45
2018-04-11T17:26:33.456Z,43.80
2018-04-11T17:29:11.752Z,44.18
2018-04-11T17:31:37.665Z,44.61
2018-04-11T17:34:03.557Z,44.80
2018-04-11T17:36:29.397Z,45.62
2018-04-11T17:38:55.322Z,46.20
2018-04-11T17:41:21.212Z,46.39
2018-04-11T17:43:47.152Z,46.45
2018-04-11T17:46:13.006Z,46.82
2018-04-11T17:48:38.882Z,47.20
2018-04-11T17:51:04.783Z,47.02
2018-04-11T17:53:30.656Z,47.35
2018-04-11T17:55:56.541Z,47.54
2018-04-11T17:58:22.379Z,47.86
2018-04-11T18:00:48.272Z,48.04
2018-04-11T18:03:14.170Z,48.29
2018-04-11T18:05:40.009Z,48.48
2018-04-11T18:08:05.877Z,48.87
2018-04-11T18:10:31.789Z,48.89
2018-04-11T18:12:57.670Z,48.89
2018-04-11T18:15:23.573Z,49.42
2018-04-11T18:17:49.437Z,49.52
2018-04-11T18:20:15.280Z,49.37
2018-04-11T18:22:41.158Z,49.88
2018-04-11T18:25:07.486Z,49.67
2018-04-11T18:27:33.386Z,49.62
2018-04-11T18:29:59.285Z,49.32
2018-04-11T18:32:25.174Z,49.30
2018-04-11T18:34:51.043Z,49.24
2018-04-11T18:37:16.898Z,49.06
2018-04-11T18:39:42.832Z,48.96
2018-04-11T18:42:08.703Z,48.84
2018-04-11T18:44:34.611Z,48.78
2018-04-11T18:47:00.623Z,48.83
2018-04-11T18:49:28.324Z,49.21
2018-04-11T18:51:54.237Z,49.33
2018-04-11T18:54:20.122Z,49.44
2018-04-11T18:56:46.024Z,49.63
2018-04-11T18:59:11.982Z,49.63
2018-04-11T19:01:37.900Z,49.81
2018-04-11T19:04:07.587Z,50.13
2018-04-11T19:06:35.836Z,50.43
2018-04-11T19:09:01.783Z,50.80
2018-04-11T19:11:27.721Z,50.83
2018-04-11T19:13:53.862Z,50.96
2018-04-11T19:16:19.755Z,50.83
2018-04-11T19:18:45.674Z,51.19
2018-04-11T19:21:11.571Z,51.43
2018-04-11T19:23:37.455Z,51.76
2018-04-11T19:26:03.334Z,52.12
2018-04-11T19:28:29.207Z,52.37
2018-04-11T19:30:55.986Z,52.61
2018-04-11T19:33:22.067Z,53.07
2018-04-11T19:35:50.627Z,53.15
2018-04-11T19:38:16.519Z,53.09
2018-04-11T19:40:46.197Z,53.13
2018-04-11T19:43:12.076Z,53.29
2018-04-11T19:45:41.762Z,53.62
2018-04-11T19:48:07.634Z,53.73
2018-04-11T19:50:33.576Z,53.77
2018-04-11T19:52:59.443Z,53.97
2018-04-11T19:55:25.746Z,53.99
2018-04-11T19:57:51.640Z,54.45
2018-04-11T20:00:17.487Z,54.95
2018-04-11T20:02:48.238Z,55.28
2018-04-11T20:05:14.149Z,55.30
2018-04-11T20:07:42.019Z,55.68
2018-04-11T20:10:10.091Z,56.10
2018-04-11T20:12:36.057Z,56.19
2018-04-11T20:15:01.967Z,56.49
2018-04-11T20:17:31.662Z,56.64
2018-04-11T20:19:57.620Z,56.74
2018-04-11T20:22:26.717Z,57.33
2018-04-11T20:24:52.702Z,57.52
2018-04-11T20:27:18.582Z,57.81
2018-04-11T20:29:44.519Z,58.55
2018-04-11T20:32:10.400Z,59.03
2018-04-11T20:34:37.086Z,59.06
2018-04-11T20:37:04.435Z,59.19
2018-04-11T20:39:32.298Z,59.25
2018-04-11T20:41:58.172Z,59.39
2018-04-11T20:44:26.558Z,59.78
2018-04-11T20:46:52.482Z,59.83
2018-04-11T20:49:21.795Z,60.01
2018-04-11T20:51:47.693Z,60.34
2018-04-11T20:54:17.469Z,60.72
2018-04-11T20:56:43.402Z,61.00
2018-04-11T20:59:10.617Z,61.17
2018-04-11T21:01:36.465Z,61.24
2018-04-11T21:04:02.339Z,61.21
2018-04-11T21:06:28.268Z,61.23
2018-04-11T21:08:54.126Z,61.25
2018-04-11T21:11:22.561Z,61.61
2018-04-11T21:13:48.372Z,62.05
2018-04-11T21:16:17.449Z,62.52
2018-04-11T21:18:43.330Z,62.50
2018-04-11T21:21:12.727Z,62.59
2018-04-11T21:23:38.597Z,62.50
2018-04-11T21:26:08.062Z,62.82
2018-04-11T21:28:33.898Z,62.84
2018-04-11T21:31:00.932Z,62.54
2018-04-11T21:33:26.801Z,62.47
2018-04-11T21:35:55.490Z,62.50
2018-04-11T21:38:21.334Z,62.64
2018-04-11T21:40:47.203Z,62.44
2018-04-11T21:43:13.050Z,62.58
2018-04-11T21:45:38.898Z,63.07
2018-04-11T21:48:08.620Z,63.11
2018-04-11T21:50:34.481Z,63.03
2018-04-11T21:53:02.114Z,63.43
2018-04-11T21:55:27.968Z,63.14
2018-04-11T21:57:56.613Z,63.12
2018-04-11T22:00:22.497Z,63.12
2018-04-11T22:02:51.790Z,63.34
2018-04-11T22:05:17.655Z,63.25
2018-04-11T22:07:47.445Z,63.31
2018-04-11T22:10:13.286Z,63.56
2018-04-11T22:12:41.020Z,63.46
2018-04-11T22:15:06.888Z,63.27
2018-04-11T22:17:32.711Z,63.01
2018-04-11T22:19:58.556Z,62.89
2018-04-11T22:22:24.432Z,62.95
2018-04-11T22:24:53.900Z,62.77
2018-04-11T22:27:19.778Z,63.02
2018-04-11T22:29:47.645Z,62.97
2018-04-11T22:32:13.507Z,63.24
2018-04-11T22:34:42.479Z,63.25
2018-04-11T22:37:08.347Z,63.36
2018-04-11T22:39:37.717Z,63.77
2018-04-11T22:42:03.576Z,64.10
2018-04-11T22:44:31.905Z,64.71
2018-04-11T22:46:57.750Z,65.06
2018-04-11T22:49:27.371Z,65.32
2018-04-11T22:51:53.210Z,65.29
2018-04-11T22:54:19.102Z,65.52
2018-04-11T22:56:44.938Z,66.12
2018-04-11T22:59:10.803Z,65.67
2018-04-11T23:01:39.970Z,65.50
2018-04-11T23:04:05.930Z,65.55
2018-04-11T23:06:32.677Z,65.44
2018-04-11T23:08:58.555Z,65.22
2018-04-11T23:11:27.565Z,65.10
2018-04-11T23:13:53.441Z,65.07
2018-04-11T23:16:22.131Z,65.19
2018-04-11T23:18:48.026Z,65.17
2018-04-11T23:21:16.930Z,64.97
2018-04-11T23:23:42.813Z,65.28
2018-04-11T23:26:11.791Z,65.24
2018-04-11T23:28:37.649Z,65.43
2018-04-11T23:31:03.504Z,65.41
2018-04-11T23:33:29.314Z,65.33
2018-04-11T23:35:55.165Z,65.58
2018-04-11T23:38:24.376Z,65.56
2018-04-11T23:40:50.254Z,66.01
2018-04-11T23:43:18.082Z,66.31
2018-04-11T23:45:43.978Z,66.13
2018-04-11T23:48:13.134Z,65.83
2018-04-11T23:50:38.989Z,65.82
2018-04-11T23:53:07.686Z,65.78
2018-04-11T23:55:33.554Z,65.70
2018-04-11T23:58:03.302Z,65.73
